KACB/ACB METAR and TAF weather

Enter ICAO airport designator
Station Type Date Time Source
KACB METAR 2018/04/27 00:55 UTC NOAA

KACB 270055Z AUTO 00000KT 10SM CLR 09/00 A2979 RMK AO2 T00891001


Station Type Date Time Source
KACB Decoded METAR 2018/04/27 00:55 UTC NOAA

Bellaire, Antrim County Airport, MI, United States (KACB) 44-59-18N 085-11-54W
Apr 26, 2018 - 08:55 PM EDT / 2018.04.27 0055 UTC
Wind: Calm:0
Visibility: 10 mile(s):0
Sky conditions: clear
Temperature: 48.0 F (8.9 C)
Dew Point: 31.8 F (-0.1 C)
Relative Humidity: 53%
Pressure (altimeter): 29.79 in. Hg (1008 hPa)
ob: KACB 270055Z AUTO 00000KT 10SM CLR 09/00 A2979 RMK AO2 T00891001
cycle: 1

Station Type Date Time Source
KACB TAF UTC NOAA

Error!


Example: see airport list